Time;durP1;ratioP1;P1;durP2;ratioP2;P2;SDS_P1;SDS_P2;PMS_P1;PMS_P2;Temp;Humidity;BMP_temperature;BMP_pressure;BME280_temperature;BME280_humidity;BME280_pressure;Samples;Min_cycle;Max_cycle;Signal;HPM_P1;HPM_P2
2022/07/11 00:02:04;;;;;;;5.25;1.25;;;15.00;99.90;;;;;;6191554;23;20020;-67
2022/07/11 00:04:31;;;;;;;2.22;1.10;;;15.00;99.90;;;;;;6218090;23;20043;-68
2022/07/11 00:06:57;;;;;;;2.63;1.33;;;15.00;99.90;;;;;;6216895;23;20017;-68
2022/07/11 00:09:23;;;;;;;5.00;1.20;;;15.10;99.90;;;;;;6190763;23;20024;-68
2022/07/11 00:11:49;;;;;;;2.45;1.10;;;15.00;99.90;;;;;;6217032;23;20017;-69
2022/07/11 00:14:15;;;;;;;1.88;0.98;;;15.00;99.90;;;;;;6217371;23;20016;-68
2022/07/11 00:16:41;;;;;;;2.67;1.00;;;15.00;99.90;;;;;;6190763;23;20021;-68
2022/07/11 00:19:07;;;;;;;4.93;1.33;;;15.00;99.90;;;;;;6217626;23;20450;-68
2022/07/11 00:21:38;;;;;;;3.30;0.73;;;15.00;99.90;;;;;;6216756;23;20075;-68
2022/07/11 00:24:04;;;;;;;2.85;1.10;;;15.00;99.90;;;;;;6190561;23;20017;-68
2022/07/11 00:26:30;;;;;;;3.15;1.50;;;14.90;99.90;;;;;;6191141;23;20056;-68
2022/07/11 00:28:56;;;;;;;2.80;1.17;;;15.00;99.90;;;;;;6216941;23;20024;-68
2022/07/11 00:31:22;;;;;;;3.58;0.90;;;15.00;99.90;;;;;;6190396;23;20521;-68
2022/07/11 00:33:49;;;;;;;4.85;1.73;;;14.90;99.90;;;;;;6217273;23;20055;-68
2022/07/11 00:36:14;;;;;;;2.30;1.20;;;14.90;99.90;;;;;;6190473;23;20458;-68
2022/07/11 00:38:40;;;;;;;2.13;1.30;;;14.90;99.90;;;;;;6217026;23;20019;-68
2022/07/11 00:41:06;;;;;;;4.38;1.38;;;14.90;99.90;;;;;;6216794;23;20024;-68
2022/07/11 00:43:34;;;;;;;7.07;1.90;;;14.90;99.90;;;;;;6190579;23;20047;-67
2022/07/11 00:46:00;;;;;;;2.58;1.25;;;14.90;99.90;;;;;;6217480;23;20027;-67
2022/07/11 00:48:26;;;;;;;2.92;1.30;;;14.90;99.90;;;;;;6217456;23;20021;-68
2022/07/11 00:50:52;;;;;;;2.72;1.27;;;14.90;99.90;;;;;;6217066;23;20434;-67
2022/07/11 00:53:18;;;;;;;;;;;14.90;99.90;;;;;;6217299;23;20016;-67
2022/07/11 00:55:44;;;;;;;3.97;1.42;;;14.90;99.90;;;;;;6217351;23;19920;-68
2022/07/11 00:58:11;;;;;;;3.90;1.65;;;14.90;99.90;;;;;;6217273;23;20016;-68
2022/07/11 01:00:37;;;;;;;3.78;1.98;;;14.90;99.90;;;;;;6216666;23;20020;-67
2022/07/11 01:03:02;;;;;;;2.85;1.30;;;14.90;99.90;;;;;;6189943;23;20079;-68
2022/07/11 01:05:28;;;;;;;2.55;1.23;;;14.90;99.90;;;;;;6190714;23;20023;-68
2022/07/11 01:07:54;;;;;;;3.10;1.30;;;14.90;99.90;;;;;;6190408;23;20464;-68
2022/07/11 01:10:20;;;;;;;;;;;14.90;99.90;;;;;;6217851;23;20151;-68
2022/07/11 01:12:46;;;;;;;4.03;1.45;;;14.90;99.90;;;;;;6216773;23;19951;-68
2022/07/11 01:15:14;;;;;;;2.40;1.17;;;14.90;99.90;;;;;;6216504;23;20341;-68
2022/07/11 01:17:39;;;;;;;3.75;1.30;;;14.90;99.90;;;;;;6217056;23;20063;-68
2022/07/11 01:20:06;;;;;;;4.22;1.20;;;14.90;99.90;;;;;;6216772;23;20020;-68
2022/07/11 01:22:38;;;;;;;3.25;1.17;;;14.90;99.90;;;;;;6216382;23;20012;-68
2022/07/11 01:25:05;;;;;;;5.90;0.88;;;15.00;99.90;;;;;;6217358;23;20105;-69
2022/07/11 01:27:32;;;;;;;3.92;0.93;;;14.90;99.90;;;;;;6216937;23;20507;-68
2022/07/11 01:29:57;;;;;;;2.25;1.10;;;14.80;99.90;;;;;;6216984;23;20016;-69
2022/07/11 01:32:23;;;;;;;2.10;1.00;;;14.90;99.90;;;;;;6217106;23;20200;-68
2022/07/11 01:34:49;;;;;;;2.08;1.10;;;14.90;99.90;;;;;;6216398;23;20009;-68
2022/07/11 01:37:15;;;;;;;4.90;1.20;;;14.90;99.90;;;;;;6189984;23;20076;-67
2022/07/11 01:39:40;;;;;;;2.47;1.35;;;14.90;99.90;;;;;;6216342;23;20020;-68
2022/07/11 01:42:06;;;;;;;3.58;1.25;;;14.90;99.90;;;;;;6189564;23;20032;-68
2022/07/11 01:44:32;;;;;;;5.05;1.33;;;14.90;99.90;;;;;;6216344;23;20020;-68
2022/07/11 01:46:57;;;;;;;3.83;1.35;;;14.90;99.90;;;;;;6216857;23;20354;-68
2022/07/11 01:49:23;;;;;;;5.38;1.40;;;15.00;99.90;;;;;;6216963;23;20016;-68
2022/07/11 01:51:56;;;;;;;2.92;1.38;;;14.90;99.90;;;;;;6216434;23;20017;-69
2022/07/11 01:54:40;;;;;;;2.30;1.38;;;14.90;99.90;;;;;;6165295;23;20071;-71
2022/07/11 01:57:06;;;;;;;4.53;1.55;;;14.90;99.90;;;;;;6216817;23;20012;-69
2022/07/11 01:59:32;;;;;;;5.47;1.50;;;14.90;99.90;;;;;;6215950;23;20473;-69
2022/07/11 02:01:58;;;;;;;2.22;1.40;;;14.90;99.90;;;;;;6216445;23;20342;-69
2022/07/11 02:04:24;;;;;;;2.90;1.33;;;14.90;99.90;;;;;;6190058;23;20024;-69
2022/07/11 02:06:49;;;;;;;2.97;1.45;;;14.80;99.90;;;;;;6216142;23;20052;-68
2022/07/11 02:09:15;;;;;;;4.22;1.60;;;14.80;99.90;;;;;;6189286;23;20020;-69
2022/07/11 02:11:41;;;;;;;3.60;1.55;;;14.80;99.90;;;;;;6216366;23;20056;-68
2022/07/11 02:14:06;;;;;;;7.75;1.75;;;14.80;99.90;;;;;;6216289;23;20091;-68
2022/07/11 02:16:32;;;;;;;5.22;1.60;;;14.80;99.90;;;;;;6189480;23;20403;-69
2022/07/11 02:18:57;;;;;;;4.97;1.90;;;14.80;99.90;;;;;;6189752;23;20063;-69
2022/07/11 02:21:24;;;;;;;12.02;2.40;;;14.80;99.90;;;;;;6216541;23;20043;-69
2022/07/11 02:23:50;;;;;;;2.63;1.52;;;14.80;99.90;;;;;;6215661;23;20088;-69
2022/07/11 02:26:15;;;;;;;5.53;1.83;;;14.80;99.90;;;;;;6215980;23;20528;-69
2022/07/11 02:28:42;;;;;;;4.43;1.30;;;14.80;99.90;;;;;;6216278;23;20022;-69
2022/07/11 02:31:08;;;;;;;5.32;1.67;;;14.70;99.90;;;;;;6216387;23;20016;-70
2022/07/11 02:33:34;;;;;;;3.47;1.30;;;14.70;99.90;;;;;;6189922;23;20025;-69
2022/07/11 02:36:00;;;;;;;3.58;1.83;;;14.80;99.90;;;;;;6216329;23;20104;-70
2022/07/11 02:38:26;;;;;;;2.65;1.30;;;14.80;99.90;;;;;;6215856;23;20020;-69
2022/07/11 02:40:52;;;;;;;3.95;1.88;;;14.70;99.90;;;;;;6215767;23;20019;-69
2022/07/11 02:43:18;;;;;;;3.42;1.73;;;14.70;99.90;;;;;;6215725;23;20020;-68
2022/07/11 02:45:43;;;;;;;2.80;1.27;;;14.70;99.90;;;;;;6215487;23;20094;-69
2022/07/11 02:48:09;;;;;;;4.05;1.55;;;14.70;99.90;;;;;;6188645;23;20096;-68
2022/07/11 02:50:35;;;;;;;3.70;1.80;;;14.60;99.90;;;;;;6215565;23;20017;-68
2022/07/11 02:53:00;;;;;;;3.00;2.10;;;14.70;99.90;;;;;;6215809;23;20028;-69
2022/07/11 02:55:26;;;;;;;5.07;2.20;;;14.70;99.90;;;;;;6215823;23;20468;-68
2022/07/11 02:57:52;;;;;;;3.35;1.70;;;14.70;99.90;;;;;;6215837;23;20020;-68
2022/07/11 03:00:18;;;;;;;6.78;2.72;;;14.70;99.90;;;;;;6216176;23;20070;-69
2022/07/11 03:02:43;;;;;;;9.73;3.10;;;14.80;99.90;;;;;;6215784;23;20021;-69
2022/07/11 03:05:09;;;;;;;7.13;2.75;;;14.80;99.90;;;;;;6216035;23;20016;-69
2022/07/11 03:07:35;;;;;;;5.53;2.30;;;14.70;99.90;;;;;;6216080;23;20016;-70
2022/07/11 03:10:01;;;;;;;5.97;4.20;;;14.60;99.90;;;;;;6215151;23;20021;-68
2022/07/11 03:12:27;;;;;;;6.78;2.33;;;14.60;99.90;;;;;;6188554;23;20023;-69
2022/07/11 03:14:52;;;;;;;;;;;14.60;99.90;;;;;;6216131;23;20013;-69
2022/07/11 03:17:19;;;;;;;4.75;2.47;;;15.10;99.90;;;;;;6215346;23;19923;-70
2022/07/11 03:19:46;;;;;;;7.13;2.92;;;14.60;99.90;;;;;;6189554;23;20036;-69
2022/07/11 03:22:12;;;;;;;5.93;3.30;;;14.60;99.90;;;;;;6215438;23;20019;-69
2022/07/11 03:24:38;;;;;;;5.70;2.83;;;14.60;99.90;;;;;;6215472;23;20059;-69
2022/07/11 03:27:05;;;;;;;5.65;3.08;;;14.60;99.90;;;;;;6215698;23;20075;-69
2022/07/11 03:29:30;;;;;;;;;;;14.60;99.90;;;;;;6189949;23;20091;-69
2022/07/11 03:31:56;;;;;;;6.97;2.78;;;14.60;99.90;;;;;;6215472;23;19955;-69
2022/07/11 03:34:22;;;;;;;6.00;2.88;;;14.60;99.90;;;;;;6215909;23;20016;-69
2022/07/11 03:36:47;;;;;;;6.10;2.50;;;14.60;99.90;;;;;;6216236;23;20014;-70
2022/07/11 03:39:14;;;;;;;7.93;2.83;;;14.60;99.90;;;;;;6215990;23;20021;-69
2022/07/11 03:41:41;;;;;;;8.88;2.58;;;14.70;99.90;;;;;;6214972;23;20026;-70
2022/07/11 03:44:06;;;;;;;;;;;14.60;99.90;;;;;;6189332;23;20017;-69
2022/07/11 03:46:32;;;;;;;4.85;2.15;;;14.60;99.90;;;;;;6215458;23;19923;-69
2022/07/11 03:48:58;;;;;;;5.50;2.67;;;14.60;99.90;;;;;;6215142;23;20058;-68
2022/07/11 03:51:24;;;;;;;;;;;14.60;99.90;;;;;;6216449;23;20102;-69
2022/07/11 03:53:49;;;;;;;9.35;3.22;;;14.60;99.90;;;;;;6215290;23;19915;-69
2022/07/11 03:56:18;;;;;;;4.00;2.28;;;14.60;99.90;;;;;;6215864;23;20023;-69
2022/07/11 03:58:43;;;;;;;6.65;2.65;;;14.70;99.90;;;;;;6190057;23;20016;-69
2022/07/11 04:01:15;;;;;;;5.72;1.88;;;14.60;99.90;;;;;;6215430;23;20079;-70
2022/07/11 04:03:41;;;;;;;4.82;2.33;;;14.60;99.90;;;;;;6213683;23;20017;-69
2022/07/11 04:06:07;;;;;;;5.53;2.10;;;14.70;99.90;;;;;;6215794;23;20063;-69
2022/07/11 04:08:33;;;;;;;3.88;1.55;;;14.60;99.90;;;;;;6215358;23;20017;-69
2022/07/11 04:10:58;;;;;;;2.80;1.33;;;14.70;99.90;;;;;;6189172;23;20023;-69
2022/07/11 04:13:25;;;;;;;3.85;1.60;;;14.70;99.90;;;;;;6214573;23;20028;-69
2022/07/11 04:15:50;;;;;;;2.72;1.10;;;14.70;99.90;;;;;;6215790;23;20091;-69
2022/07/11 04:18:17;;;;;;;2.67;1.25;;;14.70;99.90;;;;;;6215719;23;20044;-69
2022/07/11 04:20:42;;;;;;;1.92;0.80;;;14.70;99.90;;;;;;6215756;23;20023;-70
2022/07/11 04:23:08;;;;;;;3.35;1.13;;;14.70;99.90;;;;;;6188318;23;20052;-69
2022/07/11 04:25:34;;;;;;;2.88;1.35;;;14.70;99.90;;;;;;6215553;23;20019;-69
2022/07/11 04:28:00;;;;;;;;;;;14.70;99.90;;;;;;6216039;23;20521;-69
2022/07/11 04:30:26;;;;;;;2.35;1.08;;;14.70;99.90;;;;;;6215287;23;19959;-70
2022/07/11 04:32:52;;;;;;;3.67;1.10;;;14.70;99.90;;;;;;6215235;23;20036;-69
2022/07/11 04:35:17;;;;;;;3.17;1.35;;;14.70;99.90;;;;;;6189000;23;20025;-69
2022/07/11 04:37:44;;;;;;;3.55;1.67;;;14.70;99.90;;;;;;6217598;23;20056;-70
2022/07/11 04:40:10;;;;;;;3.53;1.95;;;14.80;99.90;;;;;;6217549;23;20021;-68
2022/07/11 04:42:35;;;;;;;5.47;1.90;;;14.80;99.90;;;;;;6217022;23;20016;-69
2022/07/11 04:45:01;;;;;;;6.65;2.10;;;14.80;99.90;;;;;;6215716;23;20020;-69
2022/07/11 04:47:27;;;;;;;3.00;1.58;;;14.80;99.90;;;;;;6217018;23;20017;-69
2022/07/11 04:49:52;;;;;;;4.32;1.70;;;14.80;99.90;;;;;;6216728;23;20027;-69
2022/07/11 04:52:18;;;;;;;4.38;2.05;;;14.80;99.90;;;;;;6216864;23;20020;-69
2022/07/11 04:54:44;;;;;;;5.32;1.98;;;14.80;99.90;;;;;;6190639;23;20315;-70
2022/07/11 04:57:09;;;;;;;4.28;1.65;;;14.80;99.90;;;;;;6190602;23;20023;-69
2022/07/11 04:59:35;;;;;;;3.47;2.33;;;14.80;99.90;;;;;;6216769;23;20019;-70
2022/07/11 05:02:01;;;;;;;4.68;1.80;;;14.80;99.90;;;;;;6217152;23;20021;-69
2022/07/11 05:04:27;;;;;;;5.35;2.33;;;14.80;99.90;;;;;;6217495;23;20020;-68
2022/07/11 05:07:13;;;;;;;5.70;1.95;;;14.90;99.90;;;;;;6190646;23;20104;-69
2022/07/11 05:09:41;;;;;;;4.72;2.03;;;14.90;99.90;;;;;;6216658;23;20027;-69
2022/07/11 05:12:08;;;;;;;4.78;2.00;;;14.90;99.90;;;;;;6217422;23;20020;-69
2022/07/11 05:14:34;;;;;;;4.38;1.42;;;14.90;99.90;;;;;;6216875;23;20020;-69
2022/07/11 05:16:59;;;;;;;2.53;1.20;;;15.00;99.90;;;;;;6217288;23;20016;-69
2022/07/11 05:19:25;;;;;;;1.42;0.65;;;14.90;99.90;;;;;;6216452;23;20095;-68
2022/07/11 05:21:50;;;;;;;3.70;0.88;;;14.90;99.90;;;;;;6216623;23;20346;-70
2022/07/11 05:24:18;;;;;;;3.22;0.82;;;14.90;99.90;;;;;;6216845;23;20019;-69
2022/07/11 05:26:44;;;;;;;1.13;0.70;;;14.90;99.90;;;;;;6217062;23;20363;-69
2022/07/11 05:29:10;;;;;;;2.15;0.70;;;14.90;99.90;;;;;;6217153;23;20075;-69
2022/07/11 05:31:36;;;;;;;2.72;0.60;;;14.90;99.90;;;;;;6216662;23;20016;-68
2022/07/11 05:34:02;;;;;;;4.60;0.65;;;14.90;99.90;;;;;;6165614;23;20389;-69
2022/07/11 05:36:27;;;;;;;2.97;0.60;;;14.90;99.90;;;;;;6216776;23;20021;-69
2022/07/11 05:38:53;;;;;;;3.90;1.08;;;14.90;99.90;;;;;;6216449;23;20023;-68
2022/07/11 05:41:19;;;;;;;4.22;0.70;;;14.90;99.90;;;;;;6216228;23;20098;-69
2022/07/11 05:43:45;;;;;;;7.20;0.88;;;15.00;99.90;;;;;;6216217;23;20017;-69
2022/07/11 05:46:11;;;;;;;2.63;0.65;;;15.00;99.90;;;;;;6189510;23;20067;-69
2022/07/11 05:48:37;;;;;;;2.90;0.80;;;15.00;99.90;;;;;;6215629;23;20017;-70
2022/07/11 05:51:05;;;;;;;3.92;0.88;;;15.00;99.90;;;;;;6216462;23;20089;-69
2022/07/11 05:53:31;;;;;;;1.77;0.68;;;15.10;99.90;;;;;;6216326;23;20076;-70
2022/07/11 05:55:56;;;;;;;3.42;0.50;;;15.10;99.90;;;;;;6190050;23;20036;-70
2022/07/11 05:58:22;;;;;;;3.88;0.85;;;15.10;99.90;;;;;;6216431;23;20097;-69
2022/07/11 06:00:48;;;;;;;1.75;0.50;;;15.10;99.90;;;;;;6189663;23;20525;-69
2022/07/11 06:03:13;;;;;;;1.98;0.60;;;15.10;99.90;;;;;;6190306;23;20017;-69
2022/07/11 06:05:39;;;;;;;1.10;0.40;;;15.10;99.90;;;;;;6216283;23;20008;-69
2022/07/11 06:10:49;;;;;;;2.30;0.40;;;15.10;99.90;;;;;;6188640;23;20023;-69
2022/07/11 06:13:15;;;;;;;1.15;0.43;;;15.10;99.90;;;;;;6216334;23;20048;-69
2022/07/11 06:15:41;;;;;;;2.28;0.50;;;15.20;99.90;;;;;;6216104;23;20032;-69
2022/07/11 06:18:06;;;;;;;2.10;0.60;;;15.10;99.90;;;;;;6161780;23;20025;-69
2022/07/11 06:20:32;;;;;;;0.88;0.20;;;15.20;99.90;;;;;;6215987;23;20342;-69
2022/07/11 06:22:58;;;;;;;3.35;0.50;;;15.20;99.90;;;;;;6163121;23;20027;-70
2022/07/11 06:25:24;;;;;;;2.63;0.80;;;15.20;99.90;;;;;;6188841;23;20020;-69
2022/07/11 06:27:50;;;;;;;2.15;0.40;;;15.30;99.90;;;;;;6189286;23;20433;-70
2022/07/11 06:30:16;;;;;;;1.23;0.40;;;15.30;99.90;;;;;;6212507;23;20095;-69
2022/07/11 06:32:42;;;;;;;;;;;15.30;99.90;;;;;;6215711;23;20012;-70
2022/07/11 06:35:09;;;;;;;1.65;0.63;;;15.30;99.90;;;;;;6216030;23;19943;-70
2022/07/11 06:37:36;;;;;;;2.15;0.80;;;15.30;99.90;;;;;;6215815;23;20051;-70
2022/07/11 06:40:02;;;;;;;3.15;0.70;;;15.30;99.90;;;;;;6216394;23;20024;-70
2022/07/11 06:42:28;;;;;;;5.22;0.95;;;15.30;99.90;;;;;;6215383;23;20017;-69
2022/07/11 06:44:54;;;;;;;2.08;0.82;;;15.30;99.90;;;;;;6188025;23;20091;-70
2022/07/11 06:47:20;;;;;;;2.53;0.50;;;15.40;99.90;;;;;;6215879;23;20055;-69
2022/07/11 06:49:46;;;;;;;3.15;0.70;;;15.40;99.90;;;;;;6216046;23;20024;-69
2022/07/11 06:52:12;;;;;;;1.13;0.35;;;15.40;99.90;;;;;;6215721;23;20346;-69
2022/07/11 06:54:38;;;;;;;1.30;0.40;;;15.40;99.90;;;;;;6189097;23;20017;-69
2022/07/11 06:57:04;;;;;;;0.70;0.30;;;15.40;99.90;;;;;;6187392;23;20028;-69
2022/07/11 06:59:30;;;;;;;0.30;0.20;;;15.40;99.90;;;;;;6189112;23;20055;-69
2022/07/11 07:01:57;;;;;;;1.00;0.25;;;15.50;99.90;;;;;;6189625;23;20021;-69
2022/07/11 07:04:23;;;;;;;0.35;0.20;;;15.40;99.90;;;;;;6215884;23;20020;-69
2022/07/11 07:06:49;;;;;;;1.45;0.20;;;15.40;99.90;;;;;;6215744;23;20025;-69
2022/07/11 07:09:15;;;;;;;1.40;0.28;;;15.50;99.90;;;;;;6215423;23;20016;-69
2022/07/11 07:11:41;;;;;;;2.92;0.30;;;15.50;99.90;;;;;;6215935;23;20328;-69
2022/07/11 07:14:07;;;;;;;;;;;15.50;99.90;;;;;;6216271;23;20008;-69
2022/07/11 07:16:35;;;;;;;0.90;0.20;;;15.50;99.90;;;;;;6189437;23;19939;-69
2022/07/11 07:19:00;;;;;;;0.20;0.17;;;15.50;99.90;;;;;;6188560;23;20019;-69
2022/07/11 07:21:26;;;;;;;1.55;0.10;;;15.50;99.90;;;;;;6215484;23;20091;-69
2022/07/11 07:23:52;;;;;;;0.80;0.20;;;15.50;99.90;;;;;;6215995;23;20437;-69
2022/07/11 07:26:18;;;;;;;0.28;0.20;;;15.50;99.90;;;;;;6215436;23;20016;-69
2022/07/11 07:28:45;;;;;;;0.80;0.30;;;15.50;99.90;;;;;;6188599;23;20056;-69
2022/07/11 07:31:11;;;;;;;1.23;0.22;;;15.60;99.90;;;;;;6214734;23;20100;-69
2022/07/11 07:33:38;;;;;;;1.70;0.10;;;15.60;99.90;;;;;;6215760;23;20039;-69
2022/07/11 07:36:04;;;;;;;0.10;0.00;;;15.70;99.90;;;;;;6215167;23;20028;-69
2022/07/11 07:38:30;;;;;;;1.08;0.20;;;15.70;99.90;;;;;;6214472;23;20023;-69
2022/07/11 07:40:56;;;;;;;0.00;0.00;;;15.70;99.90;;;;;;6189151;23;20095;-69
2022/07/11 07:43:22;;;;;;;0.50;0.13;;;15.70;99.90;;;;;;6215114;23;20016;-69
2022/07/11 07:45:48;;;;;;;0.45;0.30;;;15.70;99.90;;;;;;6188856;23;20025;-69
2022/07/11 07:48:13;;;;;;;1.00;0.20;;;15.70;99.90;;;;;;6215254;23;20031;-69
2022/07/11 07:50:39;;;;;;;0.47;0.10;;;15.70;99.90;;;;;;6215313;23;20068;-69
2022/07/11 07:53:05;;;;;;;0.30;0.20;;;15.80;99.90;;;;;;6188448;23;20099;-68
2022/07/11 07:55:31;;;;;;;1.38;0.30;;;15.70;99.90;;;;;;6214787;23;20017;-70
2022/07/11 07:57:59;;;;;;;0.30;0.20;;;15.80;99.90;;;;;;6188740;23;20021;-68
2022/07/11 08:03:10;;;;;;;1.20;0.55;;;15.80;99.90;;;;;;6215683;23;20032;-68
2022/07/11 08:05:36;;;;;;;1.13;0.40;;;15.90;99.90;;;;;;6215013;23;20016;-69
2022/07/11 08:08:03;;;;;;;1.60;0.70;;;15.90;99.90;;;;;;6215102;23;20027;-68
2022/07/11 08:10:29;;;;;;;0.52;0.50;;;15.90;99.90;;;;;;6216521;23;20020;-69
2022/07/11 08:12:55;;;;;;;3.00;0.57;;;15.90;99.90;;;;;;6191132;23;20021;-69
2022/07/11 08:15:22;;;;;;;0.93;0.30;;;16.00;99.90;;;;;;6217208;23;20012;-68
2022/07/11 08:17:47;;;;;;;;;;;16.00;99.90;;;;;;6217759;23;20021;-69
2022/07/11 08:20:14;;;;;;;1.20;0.20;;;16.00;99.90;;;;;;6217019;23;19916;-68
2022/07/11 08:22:40;;;;;;;0.65;0.20;;;16.00;99.90;;;;;;6216882;23;20519;-69
2022/07/11 08:25:06;;;;;;;0.10;0.10;;;16.00;99.90;;;;;;6217039;23;20434;-68
2022/07/11 08:27:33;;;;;;;2.72;0.22;;;16.10;99.90;;;;;;6217663;23;20017;-69
2022/07/11 08:29:59;;;;;;;0.65;0.32;;;16.10;99.90;;;;;;6217082;23;20017;-68
2022/07/11 08:32:25;;;;;;;0.10;0.00;;;16.10;99.90;;;;;;6217693;23;20021;-69
2022/07/11 08:34:52;;;;;;;0.20;0.10;;;16.10;99.90;;;;;;6217064;23;20452;-68
2022/07/11 08:37:18;;;;;;;0.10;0.10;;;16.10;99.90;;;;;;6217374;23;20477;-68
2022/07/11 08:39:44;;;;;;;0.40;0.22;;;16.20;99.90;;;;;;6217162;23;20436;-69
2022/07/11 08:42:10;;;;;;;0.73;0.43;;;16.20;99.90;;;;;;6189970;23;20052;-68
2022/07/11 08:44:37;;;;;;;1.30;0.60;;;16.20;99.90;;;;;;6190513;23;20027;-68
2022/07/11 08:47:04;;;;;;;1.00;0.60;;;16.30;99.90;;;;;;6190684;23;20020;-69
2022/07/11 08:49:31;;;;;;;1.42;0.82;;;16.30;99.90;;;;;;6217290;23;20038;-67
2022/07/11 08:51:58;;;;;;;1.65;0.50;;;16.30;99.90;;;;;;6217486;23;20052;-69
2022/07/11 08:54:24;;;;;;;2.03;0.75;;;16.30;99.90;;;;;;6190695;23;20528;-68
2022/07/11 08:56:52;;;;;;;2.22;0.60;;;16.30;99.90;;;;;;6217014;23;20442;-70
2022/07/11 08:59:33;;;;;;;2.92;1.70;;;16.30;99.90;;;;;;6214480;23;20063;-68
2022/07/11 09:02:03;;;;;;;2.35;1.48;;;16.30;99.90;;;;;;6216819;23;20021;-69
2022/07/11 09:04:30;;;;;;;2.80;2.03;;;16.30;99.90;;;;;;6216655;23;20023;-68
2022/07/11 09:06:59;;;;;;;3.40;1.15;;;16.40;99.90;;;;;;6216824;23;20335;-68
2022/07/11 09:09:25;;;;;;;1.10;0.70;;;16.40;99.90;;;;;;6216815;23;20323;-68
2022/07/11 09:11:51;;;;;;;1.73;0.75;;;16.40;99.90;;;;;;6190099;23;20104;-68
2022/07/11 09:14:31;;;;;;;1.02;0.65;;;16.40;99.90;;;;;;6216778;23;20015;-70
2022/07/11 09:17:01;;;;;;;1.10;0.60;;;16.40;99.90;;;;;;6216951;23;20025;-68
2022/07/11 09:19:42;;;;;;;0.50;0.30;;;16.40;99.90;;;;;;6216768;23;20088;-69
2022/07/11 09:25:21;;;;;;;0.70;0.20;;;16.30;99.90;;;;;;6216497;23;20350;-69
2022/07/11 09:27:50;;;;;;;0.35;0.25;;;16.30;99.90;;;;;;6216293;23;20056;-68
2022/07/11 09:30:27;;;;;;;3.47;0.43;;;16.30;99.90;;;;;;6216603;23;20055;-70
2022/07/11 09:32:54;;;;;;;;;;;16.30;99.90;;;;;;6217206;23;20338;-70
2022/07/11 09:35:20;;;;;;;0.88;0.50;;;16.30;99.90;;;;;;6217060;23;19919;-68
2022/07/11 09:37:48;;;;;;;0.40;0.35;;;16.30;99.90;;;;;;6215066;23;20052;-68
2022/07/11 09:40:17;;;;;;;1.67;0.40;;;16.30;99.90;;;;;;6216122;23;20035;-69
2022/07/11 09:42:50;;;;;;;1.15;0.38;;;16.40;99.90;;;;;;6216019;23;20020;-69
2022/07/11 09:45:21;;;;;;;0.63;0.10;;;16.30;99.90;;;;;;6189774;23;20480;-68
2022/07/11 09:47:50;;;;;;;1.58;0.30;;;16.40;99.90;;;;;;6216002;23;20021;-69
2022/07/11 09:50:22;;;;;;;0.50;0.30;;;16.30;99.90;;;;;;6216860;23;20346;-68
2022/07/11 09:53:11;;;;;;;0.82;0.57;;;16.40;99.90;;;;;;6216574;23;20434;-68
2022/07/11 09:55:40;;;;;;;0.45;0.40;;;16.40;99.90;;;;;;6216305;23;20438;-69
2022/07/11 09:58:08;;;;;;;3.53;0.50;;;16.30;99.90;;;;;;6216353;23;20012;-68
2022/07/11 10:00:35;;;;;;;2.85;0.40;;;16.40;99.90;;;;;;6216418;23;20047;-68
2022/07/11 10:06:39;;;;;;;0.63;0.20;;;16.40;99.90;;;;;;6213895;23;20025;-69
2022/07/11 10:09:08;;;;;;;0.60;0.40;;;16.40;99.90;;;;;;6215074;23;20021;-69
2022/07/11 10:11:44;;;;;;;0.88;0.57;;;16.40;99.90;;;;;;6189427;23;20353;-69
2022/07/11 10:14:12;;;;;;;0.70;0.30;;;16.40;99.90;;;;;;6189199;23;20100;-69
2022/07/11 10:16:43;;;;;;;0.70;0.40;;;16.40;99.90;;;;;;6215945;23;20020;-69
2022/07/11 10:19:37;;;;;;;2.17;0.60;;;16.30;99.90;;;;;;6188829;23;20338;-69
2022/07/11 10:22:41;;;;;;;3.92;0.55;;;16.40;99.90;;;;;;6215959;23;20098;-69
2022/07/11 10:25:12;;;;;;;1.52;0.50;;;16.40;99.90;;;;;;6064661;23;20515;-67
2022/07/11 10:28:09;;;;;;;0.60;0.30;;;16.40;99.90;;;;;;6065526;23;20073;-67
2022/07/11 10:30:55;;;;;;;0.80;0.50;;;16.40;99.90;;;;;;6065482;23;20456;-67
2022/07/11 10:33:23;;;;;;;1.45;0.32;;;16.40;99.90;;;;;;6065448;23;20102;-68
2022/07/11 10:35:56;;;;;;;1.83;0.57;;;16.40;99.90;;;;;;6065433;23;20475;-69
2022/07/11 10:38:24;;;;;;;2.22;0.30;;;16.40;99.90;;;;;;6041446;23;20019;-70
2022/07/11 10:40:57;;;;;;;0.50;0.30;;;16.40;99.90;;;;;;6065656;23;20377;-69
2022/07/11 10:43:50;;;;;;;0.82;0.30;;;16.40;99.90;;;;;;6065072;23;20031;-70
2022/07/11 10:46:21;;;;;;;0.70;0.40;;;16.40;99.90;;;;;;6065664;23;20034;-68
2022/07/11 10:49:22;;;;;;;1.48;0.60;;;16.40;99.90;;;;;;6041570;23;20035;-69
2022/07/11 10:52:03;;;;;;;0.98;0.50;;;16.40;99.90;;;;;;6065046;23;20119;-68
2022/07/11 10:54:52;;;;;;;1.67;0.60;;;16.40;99.90;;;;;;6064616;23;20026;-67
2022/07/11 10:57:35;;;;;;;1.08;0.60;;;16.40;99.90;;;;;;6065550;23;20145;-68
2022/07/11 11:00:14;;;;;;;0.75;0.40;;;16.40;99.90;;;;;;6063870;23;20023;-68
2022/07/11 11:03:07;;;;;;;0.30;0.30;;;16.40;99.90;;;;;;6183796;23;20039;-68
2022/07/11 11:06:03;;;;;;;0.82;0.30;;;16.50;99.90;;;;;;6215377;23;20147;-67
2022/07/11 11:08:33;;;;;;;0.60;0.30;;;16.60;99.90;;;;;;6215788;23;20020;-68
2022/07/11 11:11:00;;;;;;;1.00;0.38;;;16.60;99.90;;;;;;6188118;23;20023;-68
2022/07/11 11:13:26;;;;;;;0.70;0.20;;;16.60;99.90;;;;;;6215235;23;20016;-68
2022/07/11 11:15:56;;;;;;;0.30;0.20;;;16.70;99.90;;;;;;6215845;23;20092;-68
2022/07/11 11:18:22;;;;;;;2.75;1.38;;;16.70;99.90;;;;;;6215852;23;20091;-68
2022/07/11 11:21:09;;;;;;;2.63;1.42;;;16.70;99.90;;;;;;6215044;23;20059;-68
2022/07/11 11:23:59;;;;;;;2.53;1.63;;;16.70;99.90;;;;;;6212438;23;20460;-68
2022/07/11 11:26:24;;;;;;;2.85;1.40;;;16.70;99.90;;;;;;6215922;23;20020;-68
2022/07/11 11:28:59;;;;;;;4.35;2.03;;;16.70;99.90;;;;;;6189315;23;20075;-68
2022/07/11 11:31:26;;;;;;;3.60;2.08;;;16.70;99.90;;;;;;6215932;23;20063;-68
2022/07/11 11:33:52;;;;;;;4.10;2.88;;;16.70;99.90;;;;;;6216372;23;20323;-68
2022/07/11 11:36:19;;;;;;;;;;;16.70;99.90;;;;;;6216358;23;20012;-68
2022/07/11 11:38:46;;;;;;;2.58;1.83;;;16.70;99.90;;;;;;6215909;23;19990;-68
2022/07/11 11:41:21;;;;;;;1.88;1.38;;;16.70;99.90;;;;;;6188950;23;20024;-68
2022/07/11 11:43:47;;;;;;;2.00;1.00;;;16.70;99.90;;;;;;6188630;23;20434;-68
2022/07/11 11:46:13;;;;;;;1.20;0.80;;;16.70;99.90;;;;;;6189298;23;20099;-68
2022/07/11 11:48:45;;;;;;;2.28;1.20;;;16.70;99.90;;;;;;6215801;23;20020;-67
2022/07/11 11:51:16;;;;;;;1.40;0.80;;;16.70;99.90;;;;;;6215898;23;20020;-68
2022/07/11 11:53:57;;;;;;;1.42;0.75;;;16.70;99.90;;;;;;6189153;23;20016;-68
2022/07/11 11:56:30;;;;;;;2.90;0.75;;;16.80;99.90;;;;;;6215741;23;20052;-68
2022/07/11 11:59:12;;;;;;;1.58;0.70;;;16.80;99.90;;;;;;6215902;23;20023;-68
2022/07/11 12:01:39;;;;;;;1.67;0.60;;;16.80;99.90;;;;;;6216123;23;20071;-68
2022/07/11 12:04:11;;;;;;;1.55;0.68;;;16.80;99.90;;;;;;6215603;23;20420;-68
2022/07/11 12:06:46;;;;;;;1.60;0.68;;;16.90;99.90;;;;;;6215793;23;20051;-67
2022/07/11 12:09:15;;;;;;;0.80;0.50;;;16.80;99.90;;;;;;6215628;23;20516;-68
2022/07/11 12:12:43;;;;;;;0.80;0.70;;;16.80;99.90;;;;;;6215734;23;20048;-69
2022/07/11 12:14:39;;;;;;;0.85;0.57;;;16.80;99.90;;;;;;6215040;23;20096;-68
2022/07/11 12:17:07;;;;;;;2.58;0.88;;;16.80;99.90;;;;;;6215148;23;20063;-67
2022/07/11 12:19:34;;;;;;;1.02;0.68;;;16.90;99.90;;;;;;6215795;23;20021;-68
2022/07/11 12:22:04;;;;;;;1.65;0.55;;;16.90;99.90;;;;;;6189193;23;20087;-68
2022/07/11 12:24:30;;;;;;;1.15;0.68;;;16.90;99.90;;;;;;6215508;23;20084;-68
2022/07/11 12:26:57;;;;;;;1.55;0.75;;;16.90;99.90;;;;;;6215331;23;20513;-67
2022/07/11 12:29:27;;;;;;;1.20;0.80;;;17.00;99.90;;;;;;6215629;23;20017;-68
2022/07/11 12:31:57;;;;;;;0.85;0.70;;;17.00;99.90;;;;;;6189210;23;20023;-68
2022/07/11 12:34:27;;;;;;;3.40;0.60;;;17.00;99.90;;;;;;6215597;23;20009;-68
2022/07/11 12:37:02;;;;;;;2.15;0.68;;;17.00;99.90;;;;;;6215595;23;20071;-68
2022/07/11 12:39:30;;;;;;;2.15;0.70;;;17.00;99.90;;;;;;6215566;23;20028;-69
2022/07/11 12:41:57;;;;;;;1.40;0.80;;;17.00;99.90;;;;;;6215387;23;20021;-68
2022/07/11 12:47:14;;;;;;;1.13;0.82;;;17.00;99.90;;;;;;6215228;23;20509;-68
2022/07/11 12:49:44;;;;;;;0.90;0.70;;;17.00;99.90;;;;;;6215538;23;20048;-68
2022/07/11 12:52:14;;;;;;;1.65;0.98;;;17.10;99.90;;;;;;6189018;23;20051;-69
2022/07/11 12:54:40;;;;;;;2.88;0.73;;;17.00;99.90;;;;;;6215515;23;20051;-68
2022/07/11 12:57:07;;;;;;;2.15;0.93;;;17.20;99.90;;;;;;6217088;23;20021;-68
2022/07/11 12:59:34;;;;;;;2.55;1.08;;;17.10;99.90;;;;;;6190809;23;20019;-68
2022/07/11 13:02:07;;;;;;;2.97;0.90;;;17.00;99.90;;;;;;6217210;23;20071;-68
2022/07/11 13:04:49;;;;;;;2.78;1.30;;;17.00;99.90;;;;;;6190665;23;20098;-68
2022/07/11 13:10:16;;;;;;;4.60;1.35;;;17.10;99.90;;;;;;6216970;23;20074;-68
2022/07/11 13:12:43;;;;;;;2.45;1.23;;;17.10;99.90;;;;;;6217299;23;20021;-69
2022/07/11 13:15:10;;;;;;;2.30;1.45;;;17.10;99.90;;;;;;6190324;23;20461;-68